createdAt,value
2017-05-12T00:00:50.206Z,99.99
2017-05-12T00:02:01.282Z,99.99
2017-05-12T00:03:12.296Z,99.99
2017-05-12T00:04:23.306Z,99.99
2017-05-12T00:05:34.525Z,99.99
2017-05-12T00:06:45.535Z,99.99
2017-05-12T00:07:56.548Z,99.99
2017-05-12T00:09:07.560Z,99.99
2017-05-12T00:10:18.575Z,99.99
2017-05-12T00:11:29.579Z,99.99
2017-05-12T00:12:40.891Z,99.99
2017-05-12T00:13:52.106Z,99.99
2017-05-12T00:15:03.127Z,99.99
2017-05-12T00:16:14.148Z,99.99
2017-05-12T00:17:25.164Z,99.99
2017-05-12T00:18:36.191Z,99.99
2017-05-12T00:19:47.416Z,99.99
2017-05-12T00:20:58.630Z,99.99
2017-05-12T00:22:09.681Z,99.99
2017-05-12T00:23:20.747Z,99.99
2017-05-12T00:24:32.166Z,99.99
2017-05-12T00:25:43.177Z,99.99
2017-05-12T00:26:54.191Z,99.99
2017-05-12T00:28:05.199Z,99.99
2017-05-12T00:29:16.264Z,99.99
2017-05-12T00:30:27.278Z,99.99
2017-05-12T00:31:38.288Z,99.99
2017-05-12T00:32:49.514Z,99.99
2017-05-12T00:34:00.729Z,99.99
2017-05-12T00:35:11.833Z,99.99
2017-05-12T00:36:22.832Z,99.99
2017-05-12T00:37:33.836Z,99.99
2017-05-12T00:38:44.847Z,99.99
2017-05-12T00:39:55.868Z,99.99
2017-05-12T00:41:06.887Z,99.99
2017-05-12T00:42:17.893Z,99.99
2017-05-12T00:43:28.899Z,99.99
2017-05-12T00:44:39.952Z,99.99
2017-05-12T00:45:50.968Z,99.99
2017-05-12T00:47:01.984Z,99.99
2017-05-12T00:48:12.996Z,99.99
2017-05-12T00:49:24.010Z,99.99
2017-05-12T00:50:35.025Z,99.99
2017-05-12T00:51:46.250Z,99.99
2017-05-12T00:52:57.254Z,99.99
2017-05-12T00:54:08.268Z,99.99
2017-05-12T00:55:19.540Z,99.99
2017-05-12T00:56:30.756Z,99.99
2017-05-12T00:57:41.968Z,99.99
2017-05-12T00:58:53.182Z,99.99
2017-05-12T01:00:04.209Z,99.99
2017-05-12T01:01:15.418Z,99.99
2017-05-12T01:02:26.635Z,99.99
2017-05-12T01:03:37.862Z,99.99
2017-05-12T01:04:48.886Z,99.99
2017-05-12T01:05:59.944Z,99.99
2017-05-12T01:07:11.155Z,99.99
2017-05-12T01:08:22.209Z,99.99
2017-05-12T01:09:33.219Z,99.99
2017-05-12T01:10:44.224Z,99.99
2017-05-12T01:11:55.428Z,99.99
2017-05-12T01:13:06.436Z,99.99
2017-05-12T01:14:17.505Z,99.99
2017-05-12T01:15:28.515Z,99.99
2017-05-12T01:16:39.571Z,99.99
2017-05-12T01:17:50.588Z,99.99
2017-05-12T01:19:01.610Z,99.99
2017-05-12T01:20:12.609Z,99.99
2017-05-12T01:21:23.616Z,99.99
2017-05-12T01:22:34.674Z,99.99
2017-05-12T01:23:45.695Z,99.99
2017-05-12T01:24:56.721Z,99.99
2017-05-12T01:26:07.742Z,99.99
2017-05-12T01:27:18.964Z,99.99
2017-05-12T01:28:29.983Z,99.99
2017-05-12T01:29:40.989Z,99.99
2017-05-12T01:30:52.008Z,99.99
2017-05-12T01:32:03.207Z,99.99
2017-05-12T01:33:14.435Z,99.99
2017-05-12T01:34:25.448Z,99.99
2017-05-12T01:35:36.468Z,99.99
2017-05-12T01:36:47.667Z,99.99
2017-05-12T01:37:58.881Z,99.99
2017-05-12T01:39:09.899Z,99.99
2017-05-12T01:40:20.964Z,99.99
2017-05-12T01:41:31.974Z,99.99
2017-05-12T01:42:42.987Z,99.99
2017-05-12T01:43:53.994Z,99.99
2017-05-12T01:45:05.001Z,99.99
2017-05-12T01:46:15.999Z,99.99
2017-05-12T01:47:27.213Z,99.99
2017-05-12T01:48:38.223Z,99.99
2017-05-12T01:49:49.510Z,99.99
2017-05-12T01:51:00.528Z,99.99
2017-05-12T01:52:11.527Z,99.99
2017-05-12T01:53:22.550Z,99.99
2017-05-12T01:54:33.612Z,99.99
2017-05-12T01:55:44.639Z,99.99
2017-05-12T01:56:55.659Z,99.99
2017-05-12T01:58:06.671Z,99.99
2017-05-12T01:59:17.675Z,99.99
2017-05-12T02:00:28.745Z,99.99
2017-05-12T02:01:39.751Z,99.99
2017-05-12T02:02:50.963Z,99.99
2017-05-12T02:04:01.978Z,99.99
2017-05-12T02:05:12.992Z,99.99
2017-05-12T02:06:24.207Z,99.99
2017-05-12T02:07:35.411Z,99.99
2017-05-12T02:08:46.625Z,99.99
2017-05-12T02:09:57.635Z,99.99
2017-05-12T02:11:08.698Z,99.99
2017-05-12T02:12:19.720Z,99.99
2017-05-12T02:13:30.939Z,99.99
2017-05-12T02:14:41.956Z,99.99
2017-05-12T02:15:52.964Z,99.99
2017-05-12T02:17:03.984Z,99.99
2017-05-12T02:18:14.985Z,99.99
2017-05-12T02:19:25.998Z,99.99
2017-05-12T02:20:37.205Z,99.99
2017-05-12T02:21:48.271Z,99.99
2017-05-12T02:22:59.281Z,99.99
2017-05-12T02:24:10.295Z,99.99
2017-05-12T02:25:21.345Z,99.99
2017-05-12T02:26:32.760Z,99.99
2017-05-12T02:27:43.777Z,99.99
2017-05-12T02:28:54.803Z,99.99
2017-05-12T02:30:05.809Z,99.99
2017-05-12T02:31:16.837Z,99.99
2017-05-12T02:32:27.854Z,99.99
2017-05-12T02:33:38.858Z,99.99
2017-05-12T02:34:50.058Z,99.99
2017-05-12T02:36:01.268Z,99.99
2017-05-12T02:37:12.282Z,99.99
2017-05-12T02:38:23.493Z,99.99
2017-05-12T02:39:34.515Z,99.99
2017-05-12T02:40:45.525Z,99.99
2017-05-12T02:41:56.553Z,99.99
2017-05-12T02:43:07.564Z,99.99
2017-05-12T02:44:18.618Z,99.99
2017-05-12T02:45:29.631Z,99.99
2017-05-12T02:46:40.646Z,99.99
2017-05-12T02:47:51.904Z,99.99
2017-05-12T02:49:02.932Z,99.99
2017-05-12T02:50:13.941Z,99.99
2017-05-12T02:51:25.154Z,99.99
2017-05-12T02:52:36.372Z,99.99
2017-05-12T02:53:47.434Z,99.99
2017-05-12T02:54:58.439Z,99.99
2017-05-12T02:56:09.460Z,99.99
2017-05-12T02:57:20.474Z,99.99
2017-05-12T02:58:31.734Z,99.99
2017-05-12T02:59:42.757Z,99.99
2017-05-12T03:00:53.762Z,99.99
2017-05-12T03:02:04.788Z,99.99
2017-05-12T03:03:15.795Z,99.99
2017-05-12T03:04:26.854Z,99.99
2017-05-12T03:05:38.075Z,99.99
2017-05-12T03:06:49.083Z,99.99
2017-05-12T03:08:00.089Z,99.99
2017-05-12T03:09:11.113Z,99.99
2017-05-12T03:10:22.142Z,99.99
2017-05-12T03:11:33.161Z,99.99
2017-05-12T03:12:44.380Z,99.99
2017-05-12T03:13:55.387Z,99.99
2017-05-12T03:15:06.452Z,99.99
2017-05-12T03:16:17.676Z,99.99
2017-05-12T03:17:28.693Z,99.99
2017-05-12T03:18:39.695Z,99.99
2017-05-12T03:19:50.725Z,99.99
2017-05-12T03:21:01.735Z,99.99
2017-05-12T03:22:12.747Z,99.99
2017-05-12T03:23:23.747Z,99.99
2017-05-12T03:24:34.751Z,99.99
2017-05-12T03:25:45.818Z,99.99
2017-05-12T03:26:56.833Z,99.99
2017-05-12T03:28:07.848Z,99.99
2017-05-12T03:29:18.850Z,99.99
2017-05-12T03:30:30.274Z,99.99
2017-05-12T03:31:41.272Z,99.99
2017-05-12T03:32:52.272Z,99.99
2017-05-12T03:34:03.291Z,99.99
2017-05-12T03:35:14.299Z,99.99
2017-05-12T03:36:25.360Z,99.99
2017-05-12T03:37:36.358Z,99.99
2017-05-12T03:38:47.571Z,99.99
2017-05-12T03:39:58.587Z,99.99
2017-05-12T03:41:09.603Z,99.99
2017-05-12T03:42:20.651Z,99.99
2017-05-12T03:43:31.666Z,99.99
2017-05-12T03:44:42.676Z,99.99
2017-05-12T03:45:53.738Z,99.99
2017-05-12T03:47:04.757Z,99.99
2017-05-12T03:48:15.819Z,99.99
2017-05-12T03:49:26.825Z,99.99
2017-05-12T03:50:37.848Z,99.99
2017-05-12T03:51:48.859Z,99.99
2017-05-12T03:52:59.872Z,99.99
2017-05-12T03:54:10.864Z,99.99
2017-05-12T03:55:21.886Z,99.99
2017-05-12T03:56:32.912Z,99.99
2017-05-12T03:57:43.962Z,99.99
2017-05-12T03:58:55.180Z,99.99
2017-05-12T04:00:06.178Z,99.99
2017-05-12T04:01:17.184Z,99.99
2017-05-12T04:02:28.383Z,99.99
2017-05-12T04:03:39.393Z,99.99
2017-05-12T04:04:50.397Z,99.99
2017-05-12T04:06:01.402Z,99.99
2017-05-12T04:07:12.410Z,99.99
2017-05-12T04:08:23.479Z,99.99
2017-05-12T04:09:34.699Z,99.99
2017-05-12T04:10:45.717Z,99.99
2017-05-12T04:11:56.736Z,99.99
2017-05-12T04:13:07.740Z,99.99
2017-05-12T04:14:18.754Z,99.99
2017-05-12T04:15:29.762Z,99.99
2017-05-12T04:16:40.977Z,99.99
2017-05-12T04:17:52.000Z,99.99
2017-05-12T04:19:03.058Z,99.99
2017-05-12T04:20:14.093Z,99.99
2017-05-12T04:21:25.101Z,99.99
2017-05-12T04:22:36.108Z,99.99
2017-05-12T04:23:47.121Z,99.99
2017-05-12T04:24:58.197Z,99.99
2017-05-12T04:26:09.210Z,99.99
2017-05-12T04:27:20.232Z,99.99
2017-05-12T04:28:31.443Z,99.99
2017-05-12T04:29:42.506Z,99.99
2017-05-12T04:30:53.740Z,99.99
2017-05-12T04:32:04.761Z,99.99
2017-05-12T04:33:15.966Z,99.99
2017-05-12T04:34:26.980Z,99.99
2017-05-12T04:35:37.989Z,99.99
2017-05-12T04:36:48.997Z,99.99
2017-05-12T04:38:00.202Z,99.99
2017-05-12T04:39:11.217Z,99.99
2017-05-12T04:40:22.279Z,99.99
2017-05-12T04:41:33.518Z,99.99
2017-05-12T04:42:44.512Z,99.99
2017-05-12T04:43:55.509Z,99.99
2017-05-12T04:45:06.568Z,99.99
2017-05-12T04:46:17.573Z,99.99
2017-05-12T04:47:28.581Z,99.99
2017-05-12T04:48:39.586Z,99.99
2017-05-12T04:49:50.609Z,99.99
2017-05-12T04:51:01.637Z,99.99
2017-05-12T04:52:12.658Z,99.99
2017-05-12T04:53:23.662Z,99.99
2017-05-12T04:54:34.660Z,99.99
2017-05-12T04:55:45.666Z,99.99
2017-05-12T04:56:56.690Z,99.99
2017-05-12T04:58:07.760Z,99.99
2017-05-12T04:59:18.771Z,99.99
2017-05-12T05:00:29.787Z,99.99
2017-05-12T05:01:40.793Z,99.99
2017-05-12T05:02:52.008Z,99.99
2017-05-12T05:04:03.019Z,99.99
2017-05-12T05:05:14.029Z,99.99
2017-05-12T05:06:25.062Z,99.99
2017-05-12T05:07:36.123Z,99.99
2017-05-12T05:08:47.145Z,99.99
2017-05-12T05:09:58.162Z,99.99
2017-05-12T05:11:09.364Z,99.99
2017-05-12T05:12:20.429Z,99.99
2017-05-12T05:13:31.426Z,99.99
2017-05-12T05:14:42.435Z,99.99
2017-05-12T05:15:53.432Z,99.99
2017-05-12T05:17:04.450Z,99.99
2017-05-12T05:18:15.493Z,99.99
2017-05-12T05:19:26.695Z,99.99
2017-05-12T05:20:37.708Z,99.99
2017-05-12T05:21:48.772Z,99.99
2017-05-12T05:22:59.789Z,99.99
2017-05-12T05:24:10.803Z,99.99
2017-05-12T05:25:21.797Z,99.99
2017-05-12T05:26:32.813Z,99.99
2017-05-12T05:27:43.841Z,99.99
2017-05-12T05:28:55.086Z,99.99
2017-05-12T05:30:06.101Z,99.99
2017-05-12T05:31:17.102Z,99.99
2017-05-12T05:32:28.110Z,99.99
2017-05-12T05:33:39.111Z,99.99
2017-05-12T05:34:50.124Z,99.99
2017-05-12T05:36:01.143Z,99.99
2017-05-12T05:37:12.354Z,99.99
2017-05-12T05:38:23.353Z,99.99
2017-05-12T05:39:34.858Z,99.99
2017-05-12T05:40:45.878Z,99.99
2017-05-12T05:41:56.889Z,99.99
2017-05-12T05:43:08.097Z,99.99
2017-05-12T05:44:19.297Z,99.99
2017-05-12T05:45:30.514Z,99.99
2017-05-12T05:46:41.510Z,99.99
2017-05-12T05:47:52.733Z,99.99
2017-05-12T05:49:03.732Z,99.99
2017-05-12T05:50:14.740Z,99.99
2017-05-12T05:51:25.946Z,99.99
2017-05-12T05:52:36.941Z,99.99
2017-05-12T05:53:47.946Z,99.99
2017-05-12T05:54:58.959Z,99.99
2017-05-12T05:56:10.166Z,99.99
2017-05-12T05:57:21.377Z,99.99
2017-05-12T05:58:32.391Z,99.99
2017-05-12T05:59:43.399Z,99.99
2017-05-12T06:00:54.406Z,99.99
2017-05-12T06:02:05.455Z,99.99
2017-05-12T06:03:16.462Z,99.99
2017-05-12T06:04:27.484Z,99.99
2017-05-12T06:05:38.490Z,99.99
2017-05-12T06:06:49.489Z,99.99
2017-05-12T06:08:00.505Z,99.99
2017-05-12T06:09:11.501Z,99.99
2017-05-12T06:10:22.504Z,99.99
2017-05-12T06:11:33.966Z,99.99
2017-05-12T06:12:44.974Z,99.99
2017-05-12T06:13:55.982Z,99.99
2017-05-12T06:15:07.190Z,99.99
2017-05-12T06:16:18.246Z,99.99
2017-05-12T06:17:29.257Z,99.99
2017-05-12T06:18:40.277Z,99.99
2017-05-12T06:19:51.677Z,99.99
2017-05-12T06:21:02.700Z,99.99
2017-05-12T06:22:13.771Z,99.99
2017-05-12T06:23:24.788Z,99.99
2017-05-12T06:24:35.797Z,99.99
2017-05-12T06:25:46.813Z,99.99
2017-05-12T06:26:57.813Z,99.99
2017-05-12T06:28:08.821Z,99.99
2017-05-12T06:29:20.277Z,99.99
2017-05-12T06:30:41.541Z,99.99
2017-05-12T06:31:52.536Z,99.99
2017-05-12T06:33:03.653Z,99.99
2017-05-12T06:34:14.866Z,99.99
2017-05-12T06:35:26.069Z,99.99
2017-05-12T06:36:37.076Z,99.99
2017-05-12T06:37:48.085Z,99.99
2017-05-12T06:38:59.096Z,99.99
2017-05-12T06:40:10.306Z,99.99
2017-05-12T06:41:21.313Z,99.99
2017-05-12T06:42:32.317Z,99.99
2017-05-12T06:43:43.576Z,99.99
2017-05-12T06:44:54.788Z,99.99
2017-05-12T06:46:05.807Z,99.99
2017-05-12T06:47:16.859Z,99.99
2017-05-12T06:48:27.871Z,99.99
2017-05-12T06:49:38.881Z,99.99
2017-05-12T06:50:49.886Z,99.99
2017-05-12T06:52:00.887Z,99.99
2017-05-12T06:53:11.895Z,99.99
2017-05-12T06:54:23.113Z,99.99
2017-05-12T06:55:34.133Z,99.99
2017-05-12T06:56:45.151Z,99.99
2017-05-12T06:57:56.160Z,99.99
2017-05-12T06:59:07.171Z,99.99
2017-05-12T07:00:18.189Z,99.99
2017-05-12T07:01:29.236Z,99.99
2017-05-12T07:02:40.247Z,99.99
2017-05-12T07:03:51.253Z,99.99
2017-05-12T07:05:02.298Z,99.99
2017-05-12T07:06:13.296Z,99.99
2017-05-12T07:07:24.300Z,99.99
2017-05-12T07:08:35.313Z,99.99
2017-05-12T07:09:46.328Z,99.99
2017-05-12T07:10:57.586Z,99.99
2017-05-12T07:12:08.796Z,99.99
2017-05-12T07:13:20.046Z,99.99
2017-05-12T07:14:31.058Z,99.99
2017-05-12T07:15:42.261Z,99.99
2017-05-12T07:16:53.266Z,99.99
2017-05-12T07:18:04.288Z,99.99
2017-05-12T07:19:15.503Z,99.99
2017-05-12T07:20:26.916Z,99.99
2017-05-12T07:21:37.983Z,99.99
2017-05-12T07:22:48.996Z,99.99
2017-05-12T07:24:00.017Z,99.99
2017-05-12T07:25:11.234Z,99.99
2017-05-12T07:26:22.231Z,99.99
2017-05-12T07:27:33.247Z,99.99
2017-05-12T07:28:44.467Z,99.99
2017-05-12T07:29:55.470Z,99.99
2017-05-12T07:31:06.475Z,99.99
2017-05-12T07:32:17.529Z,99.99
2017-05-12T07:33:28.742Z,99.99
2017-05-12T07:34:39.752Z,99.99
2017-05-12T07:35:50.753Z,99.99
2017-05-12T07:37:01.761Z,99.99
2017-05-12T07:38:12.792Z,99.99
2017-05-12T07:39:23.814Z,99.99
2017-05-12T07:40:34.830Z,99.99
2017-05-12T07:41:45.853Z,99.99
2017-05-12T07:42:56.918Z,99.99
2017-05-12T07:44:08.138Z,99.99
2017-05-12T07:45:19.354Z,99.99
2017-05-12T07:46:30.358Z,99.99
2017-05-12T07:47:41.370Z,99.99
2017-05-12T07:48:52.631Z,99.99
2017-05-12T07:50:03.639Z,99.99
2017-05-12T07:51:14.857Z,99.99
2017-05-12T07:52:26.070Z,99.99
2017-05-12T07:53:37.284Z,99.99
2017-05-12T07:54:48.301Z,99.99
2017-05-12T07:55:59.307Z,99.99
2017-05-12T07:57:10.314Z,99.99
2017-05-12T07:58:21.327Z,99.99
2017-05-12T07:59:32.368Z,99.99
2017-05-12T08:00:43.626Z,99.99
2017-05-12T08:01:54.637Z,99.99
2017-05-12T08:03:05.858Z,99.99
2017-05-12T08:04:16.880Z,99.99
2017-05-12T08:05:28.092Z,99.99
2017-05-12T08:06:39.106Z,99.99
2017-05-12T08:07:50.124Z,99.99
2017-05-12T08:09:01.569Z,99.99
2017-05-12T08:10:12.844Z,99.99
2017-05-12T08:11:23.863Z,99.99
2017-05-12T08:12:35.334Z,99.99
2017-05-12T08:13:46.338Z,99.99
2017-05-12T08:14:57.351Z,99.99
2017-05-12T08:16:08.383Z,99.99
2017-05-12T08:17:19.398Z,99.99
2017-05-12T08:18:30.399Z,99.99
2017-05-12T08:19:41.405Z,99.99
2017-05-12T08:20:52.690Z,99.99
2017-05-12T08:22:03.704Z,99.99
2017-05-12T08:23:15.118Z,99.99
2017-05-12T08:24:26.343Z,99.99
2017-05-12T08:25:37.358Z,99.99
2017-05-12T08:26:48.369Z,99.99
2017-05-12T08:27:59.379Z,99.99
2017-05-12T08:29:10.589Z,99.99
2017-05-12T08:30:21.606Z,99.99
2017-05-12T08:31:32.665Z,99.99
2017-05-12T08:32:43.676Z,99.99
2017-05-12T08:33:54.689Z,99.99
2017-05-12T08:35:05.700Z,99.99
2017-05-12T08:36:16.715Z,99.99
2017-05-12T08:37:27.730Z,99.99
2017-05-12T08:38:38.934Z,99.99
2017-05-12T08:39:50.160Z,99.99
2017-05-12T08:41:01.178Z,99.99
2017-05-12T08:42:12.488Z,99.99
2017-05-12T08:43:23.492Z,99.99
2017-05-12T08:44:34.498Z,99.99
2017-05-12T08:45:45.518Z,99.99
2017-05-12T08:46:56.530Z,99.99
2017-05-12T08:48:07.585Z,99.99
2017-05-12T08:49:18.809Z,99.99
2017-05-12T08:50:29.807Z,99.99
2017-05-12T08:51:40.877Z,99.99
2017-05-12T08:52:52.299Z,99.99
2017-05-12T08:54:03.313Z,99.99
2017-05-12T08:55:14.327Z,99.99
2017-05-12T08:56:25.341Z,99.99
2017-05-12T08:57:36.370Z,99.99
2017-05-12T08:58:47.378Z,99.99
2017-05-12T08:59:58.386Z,99.99
2017-05-12T09:01:09.383Z,99.99
2017-05-12T09:02:20.401Z,99.99
2017-05-12T09:03:31.420Z,99.99
2017-05-12T09:04:42.423Z,99.99
2017-05-12T09:05:53.491Z,99.99
2017-05-12T09:07:04.501Z,99.99
2017-05-12T09:08:15.507Z,99.99
2017-05-12T09:09:26.524Z,99.99
2017-05-12T09:10:37.544Z,99.99
2017-05-12T09:11:48.558Z,99.99
2017-05-12T09:12:59.576Z,99.99
2017-05-12T09:14:10.626Z,99.99
2017-05-12T09:15:22.452Z,99.99
2017-05-12T09:16:33.462Z,99.99
2017-05-12T09:17:44.476Z,99.99
2017-05-12T09:18:55.696Z,99.99
2017-05-12T09:20:06.752Z,99.99
2017-05-12T09:21:17.975Z,99.99
2017-05-12T09:22:28.984Z,99.99
2017-05-12T09:23:40.059Z,99.99
2017-05-12T09:24:51.079Z,99.99
2017-05-12T09:26:02.140Z,99.99
2017-05-12T09:27:13.172Z,99.99
2017-05-12T09:28:24.186Z,99.99
2017-05-12T09:29:35.196Z,99.99
2017-05-12T09:30:46.453Z,99.99
2017-05-12T09:31:57.671Z,99.99
2017-05-12T09:33:08.889Z,99.99
2017-05-12T09:34:19.917Z,99.99
2017-05-12T09:35:31.132Z,99.99
2017-05-12T09:36:42.331Z,99.99
2017-05-12T09:37:53.333Z,99.99
2017-05-12T09:39:04.363Z,99.99
2017-05-12T09:40:15.384Z,99.99
2017-05-12T09:41:26.450Z,99.99
2017-05-12T09:42:37.466Z,99.99
2017-05-12T09:43:48.478Z,99.99
2017-05-12T09:44:59.496Z,99.99
2017-05-12T09:46:10.508Z,99.99
2017-05-12T09:47:21.717Z,99.99
2017-05-12T09:48:32.739Z,99.99
2017-05-12T09:49:43.747Z,99.99
2017-05-12T09:50:54.760Z,99.99
2017-05-12T09:52:05.833Z,99.99
2017-05-12T09:53:16.853Z,99.99
2017-05-12T09:54:27.877Z,99.99
2017-05-12T09:55:38.892Z,99.99
2017-05-12T09:56:49.912Z,99.99
2017-05-12T09:58:00.929Z,99.99
2017-05-12T09:59:11.949Z,99.99
2017-05-12T10:00:22.947Z,99.99
2017-05-12T10:01:33.970Z,99.99
2017-05-12T10:02:45.382Z,99.99
2017-05-12T10:03:56.381Z,99.99
2017-05-12T10:05:07.602Z,99.99
2017-05-12T10:06:18.631Z,99.99
2017-05-12T10:07:29.649Z,99.99
2017-05-12T10:08:40.657Z,99.99
2017-05-12T10:09:51.729Z,99.99
2017-05-12T10:11:02.753Z,99.99
2017-05-12T10:12:13.767Z,99.99
2017-05-12T10:13:24.791Z,99.99
2017-05-12T10:14:35.805Z,99.99
2017-05-12T10:15:46.821Z,99.99
2017-05-12T10:16:58.045Z,99.99
2017-05-12T10:18:09.259Z,99.99
2017-05-12T10:19:20.314Z,99.99
2017-05-12T10:20:31.321Z,99.99
2017-05-12T10:21:42.342Z,99.99
2017-05-12T10:22:53.360Z,99.99
2017-05-12T10:24:04.380Z,99.99
2017-05-12T10:25:15.391Z,99.99
2017-05-12T10:26:26.401Z,99.99
2017-05-12T10:27:37.604Z,99.99
2017-05-12T10:28:48.622Z,99.99
2017-05-12T10:29:59.698Z,99.99
2017-05-12T10:31:10.708Z,99.99
2017-05-12T10:32:21.732Z,99.99
2017-05-12T10:33:32.939Z,99.99
2017-05-12T10:34:43.937Z,99.99
2017-05-12T10:35:54.951Z,99.99
2017-05-12T10:37:06.005Z,99.99
2017-05-12T10:38:17.229Z,99.99
2017-05-12T10:39:28.229Z,99.99
2017-05-12T10:40:39.505Z,99.99
2017-05-12T10:41:50.730Z,99.99
2017-05-12T10:43:01.949Z,99.99
2017-05-12T10:44:13.184Z,99.99
2017-05-12T10:45:24.436Z,99.99
2017-05-12T10:46:35.498Z,99.99
2017-05-12T10:47:46.505Z,99.99
2017-05-12T10:48:57.517Z,99.99
2017-05-12T10:50:08.526Z,99.99
2017-05-12T10:51:19.585Z,99.99
2017-05-12T10:52:30.597Z,99.99
2017-05-12T10:53:42.216Z,99.99
2017-05-12T10:54:53.436Z,99.99
2017-05-12T10:56:04.449Z,99.99
2017-05-12T10:57:15.509Z,99.99
2017-05-12T10:58:26.735Z,99.99
2017-05-12T10:59:37.753Z,99.99
2017-05-12T11:00:48.954Z,99.99
2017-05-12T11:01:59.967Z,99.99
2017-05-12T11:03:10.993Z,99.99
2017-05-12T11:04:22.011Z,99.99
2017-05-12T11:05:33.226Z,99.99
2017-05-12T11:06:44.249Z,99.99
2017-05-12T11:07:55.272Z,99.99
2017-05-12T11:09:06.303Z,99.99
2017-05-12T11:10:17.318Z,99.99
2017-05-12T11:11:28.327Z,99.99
2017-05-12T11:12:39.347Z,99.99
2017-05-12T11:13:50.381Z,99.99
2017-05-12T11:15:01.653Z,99.99
2017-05-12T11:16:12.657Z,99.99
2017-05-12T11:17:23.659Z,99.99
2017-05-12T11:18:34.889Z,99.99
2017-05-12T11:19:45.905Z,99.99
2017-05-12T11:20:57.126Z,99.99
2017-05-12T11:22:08.332Z,99.99
2017-05-12T11:23:19.359Z,99.99
2017-05-12T11:24:30.839Z,99.99
2017-05-12T11:25:41.842Z,99.99
2017-05-12T11:26:53.063Z,99.99
2017-05-12T11:28:04.073Z,99.99
2017-05-12T11:29:15.100Z,99.99
2017-05-12T11:30:26.117Z,99.99
2017-05-12T11:31:37.336Z,99.99
2017-05-12T11:32:48.356Z,99.99
2017-05-12T11:33:59.372Z,99.99
2017-05-12T11:35:10.429Z,99.99
2017-05-12T11:36:21.531Z,99.99
2017-05-12T11:37:32.547Z,99.99
2017-05-12T11:38:43.560Z,99.99
2017-05-12T11:39:54.585Z,99.99
2017-05-12T11:41:06.060Z,99.99
2017-05-12T11:42:17.274Z,99.99
2017-05-12T11:43:28.294Z,99.99
2017-05-12T11:44:39.313Z,98.39
2017-05-12T11:45:50.368Z,97.67
2017-05-12T11:47:01.378Z,99.35
2017-05-12T11:48:12.403Z,99.55
2017-05-12T11:49:23.626Z,98.25
2017-05-12T11:50:34.687Z,97.96
2017-05-12T11:51:45.707Z,96.94
2017-05-12T11:52:56.724Z,96.36
2017-05-12T11:54:07.747Z,94.48
2017-05-12T11:55:18.768Z,93.9
2017-05-12T11:56:30.029Z,93.9
2017-05-12T11:57:41.051Z,92.89
2017-05-12T11:58:52.459Z,93.47
2017-05-12T12:00:03.481Z,94.53
2017-05-12T12:01:14.487Z,92.31
2017-05-12T12:02:25.563Z,91.83
2017-05-12T12:03:36.583Z,93.13
2017-05-12T12:04:47.801Z,92.65
2017-05-12T12:05:58.821Z,92.25
2017-05-12T12:07:09.855Z,89.4
2017-05-12T12:08:20.885Z,91.63
2017-05-12T12:09:31.914Z,91.53
2017-05-12T12:10:42.935Z,93.46
2017-05-12T12:11:53.959Z,93.27
2017-05-12T12:13:04.987Z,91.43
2017-05-12T12:14:16.253Z,91.24
2017-05-12T12:15:27.279Z,91.53
2017-05-12T12:16:38.300Z,92.3
2017-05-12T12:17:49.322Z,91.91
2017-05-12T12:19:00.343Z,91.58
2017-05-12T12:20:11.558Z,92.25
2017-05-12T12:21:22.784Z,91.97
2017-05-12T12:22:33.810Z,91.53
2017-05-12T12:23:44.899Z,92.74
2017-05-12T12:24:55.914Z,93.62
2017-05-12T12:26:06.935Z,93.52
2017-05-12T12:27:17.963Z,93.28
2017-05-12T12:28:28.978Z,93.66
2017-05-12T12:29:40.001Z,95.01
2017-05-12T12:30:51.013Z,95.31
2017-05-12T12:32:02.232Z,92.41
2017-05-12T12:33:13.444Z,93.95
2017-05-12T12:34:24.506Z,93.52
2017-05-12T12:35:35.715Z,91.78
2017-05-12T12:36:46.740Z,92.98
2017-05-12T12:37:57.750Z,92.6
2017-05-12T12:39:08.772Z,91.53
2017-05-12T12:40:19.818Z,91.63
2017-05-12T12:41:30.835Z,91.35
2017-05-12T12:42:41.850Z,91.35
2017-05-12T12:43:53.075Z,91.44
2017-05-12T12:45:04.135Z,92.02
2017-05-12T12:46:15.172Z,91.73
2017-05-12T12:47:26.181Z,91.92
2017-05-12T12:48:37.208Z,91.53
2017-05-12T12:49:48.214Z,91
2017-05-12T12:50:59.636Z,90.57
2017-05-12T12:52:10.848Z,91.44
2017-05-12T12:53:21.861Z,90.47
2017-05-12T12:54:32.882Z,90.86
2017-05-12T12:55:43.951Z,92.74
2017-05-12T12:56:54.973Z,90.33
2017-05-12T12:58:05.993Z,92.26
2017-05-12T12:59:17.004Z,92.22
2017-05-12T13:00:28.222Z,92.74
2017-05-12T13:01:39.281Z,92.5
2017-05-12T13:02:50.302Z,93.18
2017-05-12T13:04:01.319Z,93.04
2017-05-12T13:05:12.348Z,89.75
2017-05-12T13:06:23.363Z,91.64
2017-05-12T13:07:34.394Z,92.8
2017-05-12T13:08:45.622Z,93.47
2017-05-12T13:09:57.053Z,95.11
2017-05-12T13:11:08.062Z,94.43
2017-05-12T13:12:19.521Z,95.59
2017-05-12T13:13:30.539Z,95.11
2017-05-12T13:14:41.575Z,93.91
2017-05-12T13:15:52.801Z,94.78
2017-05-12T13:17:03.889Z,94.87
2017-05-12T13:18:15.106Z,92.41
2017-05-12T13:19:26.171Z,92.71
2017-05-12T13:20:37.196Z,92.41
2017-05-12T13:21:48.203Z,91.69
2017-05-12T13:22:59.227Z,92.32
2017-05-12T13:24:10.256Z,94.25
2017-05-12T13:25:21.269Z,92.8
2017-05-12T13:26:32.331Z,93.62
2017-05-12T13:27:43.349Z,93.62
2017-05-12T13:28:54.625Z,94.01
2017-05-12T13:30:05.839Z,94.64
2017-05-12T13:31:17.045Z,97.52
2017-05-12T13:32:28.057Z,97.91
2017-05-12T13:33:39.077Z,99.99
2017-05-12T13:34:50.287Z,99.99
2017-05-12T13:36:01.298Z,99.99
2017-05-12T13:37:12.301Z,99.99
2017-05-12T13:38:23.304Z,99.99
2017-05-12T13:39:34.561Z,99.99
2017-05-12T13:40:45.589Z,99.99
2017-05-12T13:41:56.597Z,99.99
2017-05-12T13:43:07.623Z,99.99
2017-05-12T13:44:18.633Z,99.99
2017-05-12T13:45:29.647Z,99.99
2017-05-12T13:46:40.868Z,99.99
2017-05-12T13:47:51.886Z,99.99
2017-05-12T13:49:02.896Z,99.99
2017-05-12T13:50:13.906Z,99.99
2017-05-12T13:51:25.327Z,99.99
2017-05-12T13:52:36.532Z,99.99
2017-05-12T13:53:47.547Z,99.99
2017-05-12T13:54:58.763Z,99.99
2017-05-12T13:56:09.775Z,99.99
2017-05-12T13:57:20.824Z,99.99
2017-05-12T13:58:32.038Z,99.99
2017-05-12T13:59:43.255Z,99.99
2017-05-12T14:00:54.316Z,99.99
2017-05-12T14:02:05.537Z,99.99
2017-05-12T14:03:16.756Z,99.99
2017-05-12T14:04:27.765Z,99.99
2017-05-12T14:05:38.764Z,99.99
2017-05-12T14:06:49.821Z,99.99
2017-05-12T14:08:01.230Z,99.99
2017-05-12T14:09:12.448Z,99.99
2017-05-12T14:10:23.472Z,99.99
2017-05-12T14:11:34.490Z,99.99
2017-05-12T14:12:45.499Z,99.99
2017-05-12T14:13:56.526Z,99.99
2017-05-12T14:15:07.551Z,99.99
2017-05-12T14:16:18.589Z,99.99
2017-05-12T14:17:29.608Z,99.99
2017-05-12T14:18:40.613Z,99.99
2017-05-12T14:19:51.641Z,99.99
2017-05-12T14:21:02.657Z,99.99
2017-05-12T14:22:13.673Z,99.99
2017-05-12T14:23:24.690Z,99.99
2017-05-12T14:24:36.167Z,99.99
2017-05-12T14:25:47.186Z,99.99
2017-05-12T14:26:58.214Z,99.99
2017-05-12T14:28:09.229Z,99.99
2017-05-12T14:29:20.247Z,99.99
2017-05-12T14:30:31.261Z,99.99
2017-05-12T14:31:42.487Z,99.99
2017-05-12T14:32:53.511Z,99.99
2017-05-12T14:34:04.770Z,99.99
2017-05-12T14:35:15.782Z,99.99
2017-05-12T14:36:26.805Z,99.99
2017-05-12T14:37:37.816Z,99.99
2017-05-12T14:38:48.845Z,99.99
2017-05-12T14:39:59.869Z,99.99
2017-05-12T14:41:10.885Z,99.99
2017-05-12T14:42:21.892Z,99.99
2017-05-12T14:43:33.101Z,99.99
2017-05-12T14:44:44.171Z,99.99
2017-05-12T14:45:55.195Z,99.99
2017-05-12T14:47:06.197Z,99.99
2017-05-12T14:48:17.420Z,99.99
2017-05-12T14:49:28.440Z,99.99
2017-05-12T14:50:39.452Z,99.99
2017-05-12T14:51:50.467Z,99.99
2017-05-12T14:53:01.496Z,99.99
2017-05-12T14:54:12.510Z,99.99
2017-05-12T14:55:23.589Z,99.99
2017-05-12T14:56:34.610Z,99.99
2017-05-12T14:57:45.642Z,99.99
2017-05-12T14:58:56.670Z,99.99
2017-05-12T15:00:07.691Z,99.99
2017-05-12T15:01:18.903Z,99.99
2017-05-12T15:02:29.923Z,99.99
2017-05-12T15:03:41.137Z,99.99
2017-05-12T15:04:52.144Z,98.77
2017-05-12T15:06:03.193Z,99.16
2017-05-12T15:07:14.403Z,99.26
2017-05-12T15:08:25.414Z,99.54
2017-05-12T15:09:36.428Z,99.06
2017-05-12T15:10:47.464Z,98.97
2017-05-12T15:11:58.532Z,99.64
2017-05-12T15:13:09.552Z,99.26
2017-05-12T15:14:20.760Z,99.74
2017-05-12T15:15:31.762Z,99.99
2017-05-12T15:16:42.981Z,99.99